South Fork, Pennsylvania
Current Conditions -  °F | °C
As of 10:54 PM on Thursday 18 Dec 2014 (Local Time) from KJST Reporting Station
Overcast Overcast  
Wind Chill: 12°   Ceiling: 700
Heat Index: 23°   Visibility: 9mi
Dew Point: 20°   Wind: 12mph
Humidity: 88%   Direction: 280°W
Pressure: 30.03"   Gusts: NA
Location:  40.37°N, 78.79°W
Report Text: KJST 190354Z AUTO 28010KT 9SM OVC007 M05/M07 A3003 RMK AO2 SLP200 T10501067
Loading
Personal Weather Stations






























Interactive Weather Map New forecast layout! Learn more

10-Day Weather Forecast

Advertisements
Track Severe Weather on mobile